Observations for CARDIFF-WALES ARPT, United Kingdom (EGFF)

EGFF 220520Z AUTO 10007KT 0150 R12/0350 FG VV/// 16/16 Q1019
EGFF 220450Z AUTO 09006KT 0100 R12/0325 FG VV/// 16/16 Q1019
EGFF 220420Z AUTO 09006KT 0200 R12/0350 FG BKN001 OVC023 16/16 Q1019
EGFF 220350Z AUTO 09004KT 3000 BR OVC001 16/16 Q1019
EGFF 220320Z AUTO 11005KT 2600 BR VV/// 16/16 Q1019 
EGFF 220250Z AUTO 11005KT 0150 R12/0375 FG VV/// 15/15 Q1019
EGFF 220220Z AUTO 08003KT 0050 R12/0175 FG VV/// 16/16 Q1019
EGFF 220150Z AUTO 11002KT 0100 R12/0275 FG VV/// 16/16 Q1020
EGFF 220120Z AUTO 14003KT 0050 R12/0200 FG VV/// 16/16 Q1020
EGFF 220050Z AUTO 12002KT 0250 R12/P1500 FG SCT001 16/16 Q1020  
EGFF 220020Z 18003KT 9999 NSC 17/16 Q1020   
EGFF 212350Z AUTO 33002KT 9999 SCT019 17/17 Q1020   
EGFF 212320Z AUTO VRB02KT 9999 BKN019 18/17 Q1020   
EGFF 212250Z AUTO 00000KT 9999 OVC019 18/17 Q1020   
EGFF 212220Z AUTO VRB01KT 9999 OVC019 18/17 Q1020   
EGFF 212150Z AUTO VRB01KT 9999 OVC017 18/17 Q1020   
EGFF 212120Z AUTO 32004KT 9999 OVC017 17/17 Q1021   
EGFF 212050Z AUTO 29004KT 9999 OVC019 17/17 Q1021   
EGFF 212020Z AUTO 28003KT 9999 OVC022 18/17 Q1021   
EGFF 211950Z AUTO 28004KT 9999 BKN023 OVC044 17/17 Q1020
EGFF 211920Z AUTO VRB03KT 9999 FEW018 BKN045 18/16 Q1020
EGFF 211850Z AUTO VRB02KT 9999 BKN045 19/16 Q1020   
EGFF 211820Z AUTO 31004KT 9999 BKN047 19/17 Q1020   
EGFF 211750Z AUTO 31008KT 9999 OVC045 19/17 Q1020   
EGFF 211720Z AUTO 30010KT 9999 SCT047 20/17 Q1020   
EGFF 211650Z AUTO 32009KT 9999 NCD 21/17 Q1020  
EGFF 211620Z AUTO 32010KT 9999 NCD 21/17 Q1020  
EGFF 211550Z AUTO 31010KT 9999 SCT023 21/17 Q1020   
EGFF 211520Z AUTO 31011KT 9999 NCD 21/18 Q1020  
EGFF 211450Z AUTO 31012KT 9999 NCD 21/18 Q1020  
EGFF 211420Z AUTO 30013KT 9999 NCD 21/18 Q1020  
EGFF 211350Z AUTO 28011KT 9999 FEW013 21/18 Q1020   
EGFF 211320Z AUTO 29011KT 9999 NCD 20/18 Q1021  
EGFF 211250Z AUTO 29010KT 9999 SCT011 21/18 Q1021   
EGFF 211220Z 29008KT 260V320 9999 SCT011 BKN048 20/18 Q1021 
EGFF 211150Z 30009KT 9999 FEW004 SCT009 19/18 Q1021 
EGFF 211120Z AUTO 28009KT 9999 BKN005 OVC009 18/18 Q1021
EGFF 211050Z 27008KT 8000 BKN002 OVC004 17/17 Q1021 
EGFF 211020Z 28010KT 4200 R30/1100 BR OVC001 17/17 Q1021
EGFF 210950Z 27008KT 0400 R30/1100 FG OVC001 17/17 Q1021
EGFF 210920Z 28011KT 1200 R30/P1500 BR OVC001 17/17 Q1021   
EGFF 210850Z AUTO 27009KT 0600 R30/0800 FG OVC001 17/17 Q1021   
EGFF 210820Z 28010KT 8000 OVC001 17/17 Q1021
EGFF 210750Z AUTO 27009KT 2600 -DZ OVC001 17/17 Q1021 REDZ  
EGFF 210720Z AUTO 28009KT 2500 DZ OVC001 17/17 Q1021
EGFF 210650Z AUTO 28008KT 2500 DZ OVC002 17/17 Q1020
EGFF 210620Z AUTO 28008KT 2900 -DZ OVC001 17/17 Q1020 REDZ  
EGFF 210550Z AUTO 27008KT 5000 BR OVC001 17/17 Q1020 REDZ   
EGFF 210520Z AUTO 27006KT 4600 -DZ OVC001 17/17 Q1020 RERA REDZ 
EGFF 210450Z AUTO 28007KT 2500 DZ OVC001 17/17 Q1020